Time;durP1;ratioP1;P1;durP2;ratioP2;P2;SDS_P1;SDS_P2;PMS_P1;PMS_P2;Temp;Humidity;BMP_temperature;BMP_pressure;BME280_temperature;BME280_humidity;BME280_pressure;Samples;Min_cycle;Max_cycle;Signal;HPM_P1;HPM_P2
2022/04/26 03:36:34;;;;;;;13.45;9.93;;;;;;;9.22;89.14;100100.06;5032403;28;20036;-76
2022/04/26 03:39:00;;;;;;;14.13;11.15;;;;;;;9.23;89.65;100101.72;5041970;28;20029;-76
2022/04/26 03:41:25;;;;;;;13.32;10.40;;;;;;;9.25;89.27;100101.59;5042763;28;20037;-76
2022/04/26 03:43:50;;;;;;;16.77;13.18;;;;;;;9.23;89.64;100111.47;5036191;28;20030;-76
2022/04/26 03:46:16;;;;;;;19.20;14.27;;;;;;;9.24;90.17;100105.19;5048613;28;20041;-76
2022/04/26 03:48:41;;;;;;;17.90;14.23;;;;;;;9.23;90.51;100109.66;5053397;28;20520;-75
2022/04/26 03:51:06;;;;;;;19.27;15.02;;;;;;;9.23;90.73;100120.19;5042908;28;20029;-76
2022/04/26 03:53:33;;;;;;;20.83;15.63;;;;;;;9.25;90.68;100120.06;5030493;28;20041;-76
2022/04/26 03:55:58;;;;;;;18.40;13.27;;;;;;;9.29;90.12;100118.75;5031923;28;20391;-76
2022/04/26 03:58:25;;;;;;;15.55;12.02;;;;;;;9.34;89.55;100119.13;5029911;28;20040;-76
2022/04/26 04:00:50;;;;;;;18.52;13.50;;;;;;;9.36;88.93;100119.78;5027141;28;20120;-76
2022/04/26 04:03:16;;;;;;;16.83;12.15;;;;;;;9.39;88.85;100123.94;5028338;28;20413;-76
2022/04/26 04:05:42;;;;;;;15.60;11.73;;;;;;;9.40;89.09;100117.69;5026436;28;20037;-75
2022/04/26 04:08:07;;;;;;;17.80;12.73;;;;;;;9.41;89.24;100119.34;5027968;28;20083;-76
2022/04/26 04:10:33;;;;;;;19.73;14.18;;;;;;;9.39;88.97;100122.16;5032901;28;20037;-75
2022/04/26 04:12:58;;;;;;;20.20;14.60;;;;;;;9.41;88.48;100136.00;5030442;28;20053;-76
2022/04/26 04:15:23;;;;;;;18.17;13.13;;;;;;;9.43;88.17;100138.50;5042085;28;20037;-76
2022/04/26 04:17:49;;;;;;;16.55;11.63;;;;;;;9.43;87.99;100133.22;5045192;28;20115;-76
2022/04/26 04:20:15;;;;;;;13.30;10.07;;;;;;;9.44;88.32;100134.84;5040950;28;20126;-76
2022/04/26 04:22:41;;;;;;;13.80;9.93;;;;;;;9.44;88.48;100135.72;5027011;28;20038;-75
2022/04/26 04:25:06;;;;;;;14.60;10.70;;;;;;;9.48;88.32;100131.75;5027870;28;20509;-75
2022/04/26 04:27:32;;;;;;;18.38;12.10;;;;;;;9.48;88.61;100125.66;5028012;28;20095;-75
2022/04/26 04:30:02;;;;;;;21.25;14.32;;;;;;;9.46;88.47;100132.88;5045458;28;20041;-75
2022/04/26 04:32:29;;;;;;;23.20;16.02;;;;;;;9.45;88.26;100131.25;5046866;28;20033;-75
2022/04/26 04:34:55;;;;;;;18.88;13.40;;;;;;;9.46;88.72;100130.25;5030613;28;20038;-75
2022/04/26 04:37:21;;;;;;;26.13;19.38;;;;;;;9.47;89.99;100140.66;5037206;28;20438;-75
2022/04/26 04:39:46;;;;;;;23.80;16.63;;;;;;;9.49;89.77;100143.97;5036785;28;20092;-75
2022/04/26 04:42:13;;;;;;;21.40;16.17;;;;;;;9.52;89.91;100146.31;5028125;28;20044;-75
2022/04/26 04:44:38;;;;;;;20.08;14.80;;;;;;;9.52;89.39;100148.94;5034219;28;20048;-75
2022/04/26 04:47:04;;;;;;;18.90;13.95;;;;;;;9.55;89.58;100153.91;5030256;28;20029;-75
2022/04/26 04:49:29;;;;;;;19.52;14.10;;;;;;;9.52;89.90;100154.22;5026593;28;20061;-75
2022/04/26 04:51:54;;;;;;;16.20;12.05;;;;;;;9.55;90.00;100161.81;5027761;28;20490;-75
2022/04/26 04:54:20;;;;;;;14.73;11.18;;;;;;;9.58;89.44;100163.31;5029262;28;20041;-75
2022/04/26 04:56:45;;;;;;;17.05;12.75;;;;;;;9.60;89.78;100171.09;5029484;28;20025;-74
2022/04/26 04:59:10;;;;;;;19.27;13.18;;;;;;;9.60;89.77;100177.19;5029572;28;20491;-74
2022/04/26 05:01:35;;;;;;;19.98;15.00;;;;;;;9.62;89.71;100166.50;5027750;28;20065;-74
2022/04/26 05:04:01;;;;;;;18.90;13.80;;;;;;;9.64;89.79;100170.66;5025486;28;20065;-74
2022/04/26 05:06:26;;;;;;;24.00;17.35;;;;;;;9.56;90.06;100167.97;5027298;28;20049;-74
2022/04/26 05:08:51;;;;;;;22.85;16.13;;;;;;;9.57;89.39;100169.59;5029770;28;20254;-74
2022/04/26 05:11:17;;;;;;;22.10;15.55;;;;;;;9.59;89.21;100172.09;5028321;28;20125;-74
2022/04/26 05:13:42;;;;;;;19.65;13.77;;;;;;;9.63;89.10;100170.78;5023994;28;20030;-74
2022/04/26 05:16:08;;;;;;;17.60;12.88;;;;;;;9.62;88.94;100175.25;5025017;28;20072;-74
2022/04/26 05:18:33;;;;;;;20.05;14.48;;;;;;;9.57;89.28;100180.16;5025870;28;20045;-74
2022/04/26 05:20:59;;;;;;;23.98;16.63;;;;;;;9.53;88.82;100181.44;5023865;28;20057;-74
2022/04/26 05:26:08;;;;;;;28.92;18.70;;;;;;;9.39;88.86;100182.00;5026683;28;20129;-74
2022/04/26 05:28:34;;;;;;;22.08;15.60;;;;;;;9.41;88.88;100186.13;5027762;28;20112;-74
2022/04/26 05:30:59;;;;;;;24.25;16.45;;;;;;;9.35;89.07;100187.56;5028222;28;20073;-74
2022/04/26 05:33:27;;;;;;;29.83;20.17;;;;;;;9.28;89.33;100189.16;5027323;28;20037;-74
2022/04/26 05:35:53;;;;;;;28.98;18.75;;;;;;;9.25;89.48;100196.56;5026869;28;20038;-74
2022/04/26 05:38:18;;;;;;;26.33;18.55;;;;;;;9.22;89.59;100183.66;5029194;28;20099;-74
2022/04/26 05:40:44;;;;;;;30.35;19.40;;;;;;;9.20;89.35;100186.47;5022401;28;20029;-74
2022/04/26 05:43:09;;;;;;;40.85;26.50;;;;;;;9.04;90.62;100197.69;5033208;28;20029;-73
2022/04/26 05:45:35;;;;;;;37.72;24.95;;;;;;;9.01;90.32;100191.88;5039709;28;20057;-74
2022/04/26 05:48:00;;;;;;;36.78;23.85;;;;;;;8.94;90.83;100191.66;5032077;28;20044;-74
2022/04/26 05:50:26;;;;;;;36.53;24.35;;;;;;;8.85;91.05;100192.56;5024409;28;20041;-74
2022/04/26 05:52:51;;;;;;;37.97;24.75;;;;;;;8.85;91.16;100193.38;5024499;28;20575;-74
2022/04/26 05:55:17;;;;;;;38.47;26.05;;;;;;;8.75;92.54;100187.34;5029276;28;20068;-73
2022/04/26 05:57:42;;;;;;;43.00;27.83;;;;;;;8.74;92.34;100187.47;5026424;28;20038;-74
2022/04/26 06:00:10;;;;;;;39.88;26.10;;;;;;;8.73;92.13;100189.28;5029236;28;20495;-73
2022/04/26 06:02:35;;;;;;;42.75;26.88;;;;;;;8.66;92.75;100186.41;5025592;28;20640;-73
2022/04/26 06:05:01;;;;;;;51.65;31.13;;;;;;;8.58;93.75;100190.75;5022609;28;20029;-73
2022/04/26 06:07:27;;;;;;;45.75;29.30;;;;;;;8.56;94.57;100196.19;5037047;28;20029;-74
2022/04/26 06:09:54;;;;;;;44.20;27.80;;;;;;;8.62;93.60;100203.50;5048575;28;20068;-73
2022/04/26 06:12:22;;;;;;;43.33;27.92;;;;;;;8.59;94.51;100209.06;5030273;28;20512;-73
2022/04/26 06:14:47;;;;;;;47.20;29.35;;;;;;;8.50;95.37;100202.84;5029758;28;20038;-73
2022/04/26 06:17:12;;;;;;;44.95;28.33;;;;;;;8.54;95.61;100200.78;5031284;28;20030;-73
2022/04/26 06:19:37;;;;;;;35.05;23.50;;;;;;;8.62;94.96;100202.66;5031517;28;20036;-73
2022/04/26 06:22:03;;;;;;;35.60;24.33;;;;;;;8.72;94.63;100208.69;5048563;28;20036;-73
2022/04/26 06:24:28;;;;;;;30.85;21.15;;;;;;;8.77;94.19;100208.25;5048884;28;20039;-73
2022/04/26 06:26:54;;;;;;;32.78;21.55;;;;;;;8.85;93.44;100209.19;5046376;28;20037;-73
2022/04/26 06:29:19;;;;;;;32.28;21.15;;;;;;;8.96;93.22;100208.13;5044420;28;20033;-73
2022/04/26 06:31:44;;;;;;;32.42;22.40;;;;;;;8.91;93.71;100210.41;5046149;28;20033;-73
2022/04/26 06:34:10;;;;;;;36.50;24.30;;;;;;;8.89;93.74;100205.28;5055755;28;20032;-73
2022/04/26 06:36:35;;;;;;;33.10;23.05;;;;;;;8.90;94.03;100212.22;5053979;28;20043;-74
2022/04/26 06:39:00;;;;;;;38.42;24.77;;;;;;;8.88;94.50;100219.44;5054737;28;20041;-74
2022/04/26 06:41:25;;;;;;;36.20;23.40;;;;;;;8.89;94.40;100213.19;5047124;28;20409;-74
2022/04/26 06:43:51;;;;;;;30.30;21.38;;;;;;;8.90;94.19;100222.75;5050311;28;20029;-74
2022/04/26 06:46:16;;;;;;;31.25;20.88;;;;;;;8.97;93.66;100216.91;5046450;28;20122;-74
2022/04/26 06:48:41;;;;;;;33.88;22.73;;;;;;;8.99;93.54;100226.31;5052337;28;20029;-73
2022/04/26 06:51:07;;;;;;;30.48;20.67;;;;;;;9.02;93.56;100223.38;5044603;28;20052;-74
2022/04/26 06:53:34;;;;;;;27.85;19.50;;;;;;;9.19;93.84;100221.72;5052199;28;20041;-74
2022/04/26 06:56:00;;;;;;;28.40;19.55;;;;;;;9.38;93.58;100230.47;5045212;28;20088;-73
2022/04/26 06:58:25;;;;;;;32.00;22.00;;;;;;;9.66;92.95;100223.31;5048476;28;20045;-73
2022/04/26 07:00:50;;;;;;;26.45;19.50;;;;;;;9.82;92.52;100226.06;5039777;28;20040;-73
2022/04/26 07:03:16;;;;;;;22.65;17.15;;;;;;;10.04;91.84;100231.81;5031576;28;20038;-73
2022/04/26 07:05:41;;;;;;;27.23;18.80;;;;;;;10.18;91.68;100236.53;5037922;28;20029;-73
2022/04/26 07:08:07;;;;;;;30.23;20.25;;;;;;;10.20;91.09;100232.75;5047052;28;20064;-74
2022/04/26 07:10:33;;;;;;;30.23;21.38;;;;;;;10.26;90.19;100235.75;5047464;28;20068;-74
2022/04/26 07:12:58;;;;;;;30.85;21.42;;;;;;;10.35;89.83;100232.19;5047496;28;20037;-74
2022/04/26 07:15:25;;;;;;;29.42;21.80;;;;;;;10.56;88.93;100239.72;5045531;28;20034;-73
2022/04/26 07:17:50;;;;;;;23.13;17.17;;;;;;;10.83;88.34;100233.38;5037915;28;20098;-74
2022/04/26 07:20:15;;;;;;;23.73;16.50;;;;;;;10.98;87.97;100237.03;5037847;28;20037;-74
2022/04/26 07:22:40;;;;;;;22.70;16.38;;;;;;;10.97;88.08;100239.88;5048662;28;20038;-73
2022/04/26 07:25:07;;;;;;;26.17;19.15;;;;;;;10.75;88.28;100247.41;5049131;28;20066;-74
2022/04/26 07:27:33;;;;;;;22.95;17.05;;;;;;;10.60;88.44;100241.06;5047476;28;20025;-74
2022/04/26 07:29:58;;;;;;;23.35;17.58;;;;;;;10.66;88.43;100245.72;5048605;28;20109;-73
2022/04/26 07:34:20;;;;;;;22.77;16.50;;;;;;;11.30;88.29;100242.56;5048367;28;20045;-74
2022/04/26 07:35:10;;;;;;;20.77;15.10;;;;;;;12.25;89.18;100245.53;5050072;28;20493;-74
2022/04/26 07:37:36;;;;;;;18.33;12.90;;;;;;;12.86;88.38;100253.78;5051303;28;20033;-74
2022/04/26 07:40:01;;;;;;;14.82;11.18;;;;;;;13.28;85.41;100256.06;5050543;28;20525;-74
2022/04/26 07:42:27;;;;;;;15.07;11.95;;;;;;;13.62;81.77;100254.81;5050567;28;20041;-74
2022/04/26 07:44:52;;;;;;;14.65;11.23;;;;;;;13.91;79.95;100261.22;5051521;28;20041;-75
2022/04/26 07:47:22;;;;;;;12.85;10.23;;;;;;;14.01;79.43;100257.31;5045277;28;20037;-75
2022/04/26 07:49:48;;;;;;;12.45;9.95;;;;;;;14.11;78.48;100261.50;5044683;28;20025;-75
2022/04/26 07:52:15;;;;;;;14.00;10.45;;;;;;;14.02;77.50;100255.47;5042681;28;20048;-75
2022/04/26 07:54:41;;;;;;;12.63;9.35;;;;;;;14.07;76.83;100262.91;5045768;28;20521;-74
2022/04/26 07:57:07;;;;;;;12.32;9.05;;;;;;;14.15;76.26;100255.66;5043437;28;20510;-74
2022/04/26 07:59:32;;;;;;;13.88;10.20;;;;;;;14.01;74.88;100262.63;5046735;28;20033;-74
2022/04/26 08:01:58;;;;;;;12.60;9.70;;;;;;;13.81;74.98;100272.09;5056452;28;20035;-74
2022/04/26 08:04:23;;;;;;;11.20;8.65;;;;;;;14.09;74.63;100271.53;5045820;28;20045;-75
2022/04/26 08:06:48;;;;;;;8.07;7.00;;;;;;;14.83;75.13;100266.25;5035523;28;20418;-74
2022/04/26 08:09:13;;;;;;;9.88;7.07;;;;;;;15.93;73.62;100270.47;5040481;28;20025;-76
2022/04/26 08:11:40;;;;;;;8.23;6.50;;;;;;;16.62;69.31;100267.00;5037954;28;20412;-75
2022/04/26 08:14:05;;;;;;;7.28;6.53;;;;;;;16.95;67.74;100275.19;5040529;28;20419;-75
2022/04/26 08:16:31;;;;;;;8.00;6.90;;;;;;;17.34;66.97;100276.34;5037514;28;20037;-75
2022/04/26 08:18:56;;;;;;;9.35;7.45;;;;;;;17.22;63.48;100280.63;5035553;28;20095;-76
2022/04/26 08:21:22;;;;;;;9.10;7.50;;;;;;;17.31;61.50;100279.41;5036249;28;20098;-76
2022/04/26 08:29:18;;;;;;;6.72;5.80;;;;;;;16.93;61.17;100281.75;5028649;28;20087;-75
2022/04/26 08:31:43;;;;;;;7.80;6.60;;;;;;;16.29;61.05;100293.50;5022871;28;20511;-75
2022/04/26 08:34:09;;;;;;;8.27;6.85;;;;;;;16.09;61.86;100296.84;5025282;28;20052;-75
2022/04/26 08:36:34;;;;;;;8.27;6.47;;;;;;;15.90;62.62;100293.00;5030356;28;20037;-75
2022/04/26 08:39:00;;;;;;;8.93;6.72;;;;;;;15.93;61.82;100297.13;5041859;28;20033;-75
2022/04/26 08:41:26;;;;;;;7.45;5.75;;;;;;;15.72;61.98;100303.28;5039655;28;20038;-75
2022/04/26 08:43:51;;;;;;;7.50;5.68;;;;;;;16.38;62.28;100299.53;5037655;28;20037;-76
2022/04/26 08:46:17;;;;;;;7.85;5.75;;;;;;;16.42;61.89;100301.59;5025852;28;20038;-76
2022/04/26 08:51:26;;;;;;;7.97;6.18;;;;;;;16.32;60.94;100301.09;5043108;28;21341;-75
2022/04/26 08:53:51;;;;;;;7.63;5.55;;;;;;;16.06;61.63;100307.06;5035351;28;20041;-75
2022/04/26 08:56:17;;;;;;;7.15;5.88;;;;;;;15.81;62.34;100302.16;5026217;28;20053;-77
2022/04/26 08:58:43;;;;;;;6.57;5.28;;;;;;;15.59;62.08;100306.63;5039139;28;20380;-76
2022/04/26 09:01:18;;;;;;;5.90;4.72;;;;;;;15.40;62.29;100313.41;5037697;28;20037;-76
2022/04/26 09:03:55;;;;;;;6.28;4.70;;;;;;;15.16;61.68;100313.72;5037537;28;20038;-76
2022/04/26 09:06:40;;;;;;;5.72;4.25;;;;;;;15.08;61.74;100306.69;5034129;28;20089;-76
2022/04/26 09:09:10;;;;;;;4.75;3.58;;;;;;;15.60;62.46;100316.28;5028146;28;20041;-74
2022/04/26 09:11:37;;;;;;;4.20;3.75;;;;;;;16.10;60.72;100321.69;5035022;28;20033;-76
2022/04/26 09:14:08;;;;;;;5.63;4.85;;;;;;;15.63;59.76;100317.72;5039532;28;20385;-74
2022/04/26 09:16:34;;;;;;;4.80;4.00;;;;;;;15.82;59.72;100319.78;5031715;28;20398;-75
2022/04/26 09:19:05;;;;;;;5.22;4.72;;;;;;;15.50;59.19;100326.41;5031997;28;20040;-74
2022/04/26 09:21:34;;;;;;;4.38;3.78;;;;;;;15.43;59.86;100326.34;5040027;28;20033;-74
2022/04/26 09:24:07;;;;;;;4.63;3.20;;;;;;;15.71;60.08;100330.97;5032901;28;20060;-74
2022/04/26 09:26:41;;;;;;;5.10;3.50;;;;;;;15.66;60.30;100336.84;5037085;28;20025;-76
2022/04/26 09:29:07;;;;;;;3.90;3.10;;;;;;;15.65;59.32;100332.50;5048856;28;20100;-74
2022/04/26 09:31:38;;;;;;;5.18;4.20;;;;;;;15.25;59.96;100325.94;5049578;28;20128;-76
2022/04/26 09:34:13;;;;;;;4.83;4.17;;;;;;;14.95;60.89;100325.16;5033833;28;20045;-77
2022/04/26 09:36:48;;;;;;;4.60;3.80;;;;;;;15.06;60.96;100330.84;5041317;28;20044;-74
2022/04/26 09:39:21;;;;;;;3.92;3.53;;;;;;;15.21;61.12;100327.34;5040873;28;20033;-75
2022/04/26 09:41:52;;;;;;;5.22;4.30;;;;;;;15.12;60.72;100326.59;5038101;28;20030;-75
2022/04/26 09:44:30;;;;;;;6.00;4.07;;;;;;;15.06;59.47;100330.84;5025132;28;20432;-77
2022/04/26 09:46:55;;;;;;;4.78;3.75;;;;;;;15.05;59.96;100334.50;5020336;28;20049;-74
2022/04/26 09:49:22;;;;;;;3.80;3.17;;;;;;;15.34;61.09;100330.13;5028155;28;20043;-74
2022/04/26 09:51:51;;;;;;;4.90;3.10;;;;;;;16.90;58.57;100340.91;5027873;28;20036;-75
2022/04/26 09:54:17;;;;;;;;;;;;;;;17.39;55.49;100338.03;5026092;28;20034;-75
2022/04/26 09:56:45;;;;;;;4.10;3.47;;;;;;;18.56;54.06;100341.22;5037484;28;19936;-75
2022/04/26 09:59:20;;;;;;;3.40;2.55;;;;;;;20.04;52.74;100347.59;5034819;28;20085;-75
2022/04/26 10:01:50;;;;;;;4.30;3.35;;;;;;;21.23;48.33;100342.09;5025112;28;20029;-76
2022/04/26 10:04:17;;;;;;;3.20;2.90;;;;;;;22.64;46.75;100345.09;5028561;28;20124;-75
2022/04/26 10:06:45;;;;;;;2.67;1.95;;;;;;;24.27;42.36;100342.00;5025337;28;20288;-75
2022/04/26 10:09:12;;;;;;;3.58;3.00;;;;;;;23.75;40.71;100339.53;5024566;28;20042;-75
2022/04/26 10:11:37;;;;;;;3.40;3.03;;;;;;;24.12;40.02;100353.41;5035817;28;20107;-75
2022/04/26 10:14:07;;;;;;;4.13;3.72;;;;;;;21.87;41.65;100350.53;5022162;28;20033;-76
2022/04/26 10:16:33;;;;;;;5.13;4.30;;;;;;;19.24;46.80;100348.88;5023571;28;20525;-75
2022/04/26 10:19:10;;;;;;;5.60;4.40;;;;;;;18.24;49.51;100346.41;5022381;28;20030;-74
2022/04/26 10:21:35;;;;;;;3.70;3.00;;;;;;;18.12;50.01;100344.56;5038734;28;20441;-74
2022/04/26 10:24:04;;;;;;;5.73;3.60;;;;;;;17.82;51.10;100347.63;5031386;28;20048;-75
2022/04/26 10:26:34;;;;;;;3.72;3.25;;;;;;;17.80;51.54;100347.84;5023959;28;20057;-74
2022/04/26 10:29:15;;;;;;;4.57;3.85;;;;;;;18.22;51.97;100344.97;5027414;28;20057;-74
2022/04/26 10:31:42;;;;;;;4.45;4.00;;;;;;;18.66;50.24;100344.31;5019459;28;20047;-75
2022/04/26 10:34:27;;;;;;;4.75;3.30;;;;;;;19.03;48.97;100343.81;5015620;28;20038;-74
2022/04/26 10:37:11;;;;;;;4.05;3.45;;;;;;;19.21;48.80;100343.09;5022900;28;20034;-75
2022/04/26 10:39:38;;;;;;;3.80;3.35;;;;;;;19.49;48.54;100370.41;5028743;28;20049;-74
2022/04/26 10:42:16;;;;;;;4.47;3.70;;;;;;;18.99;48.16;100350.63;5029526;28;20025;-74
2022/04/26 10:44:43;;;;;;;4.75;3.70;;;;;;;18.97;48.77;100350.81;5024169;28;20037;-74
2022/04/26 10:47:09;;;;;;;4.13;3.72;;;;;;;18.62;49.34;100356.47;5033470;28;20148;-74
2022/04/26 10:49:40;;;;;;;4.75;3.47;;;;;;;18.00;50.08;100360.41;5048177;28;20068;-74
2022/04/26 10:52:14;;;;;;;3.88;3.30;;;;;;;17.16;50.85;100356.22;5044736;28;20022;-74
2022/04/26 10:54:45;;;;;;;3.53;3.00;;;;;;;16.79;52.31;100363.66;5029351;28;20457;-73
2022/04/26 10:57:22;;;;;;;4.32;3.60;;;;;;;16.23;54.22;100358.28;5029229;28;20530;-74
2022/04/26 10:59:49;;;;;;;4.10;3.50;;;;;;;16.00;53.82;100371.88;5030293;28;20585;-73
2022/04/26 11:02:21;;;;;;;4.03;3.20;;;;;;;15.93;54.07;100379.78;5032057;28;20068;-74
2022/04/26 11:04:54;;;;;;;4.25;3.85;;;;;;;15.56;55.61;100375.47;5024742;28;20116;-73
2022/04/26 11:07:22;;;;;;;4.43;3.92;;;;;;;15.28;56.32;100370.84;5020328;28;20116;-73
2022/04/26 11:09:49;;;;;;;3.15;2.70;;;;;;;15.22;56.25;100368.94;5019886;28;20042;-73
2022/04/26 11:12:17;;;;;;;3.75;2.00;;;;;;;15.36;56.80;100370.75;5030161;28;20038;-74
2022/04/26 11:14:43;;;;;;;3.15;2.28;;;;;;;15.61;55.57;100370.41;5021603;28;20037;-73
2022/04/26 11:17:08;;;;;;;3.50;2.40;;;;;;;15.40;55.68;100371.22;5029802;28;20048;-73
2022/04/26 11:19:36;;;;;;;3.40;2.00;;;;;;;14.91;55.75;100383.28;5037904;28;20033;-73
2022/04/26 11:22:10;;;;;;;3.13;2.28;;;;;;;14.41;57.48;100379.41;5043906;28;20160;-73
2022/04/26 11:30:07;;;;;;;2.75;1.65;;;;;;;13.78;59.25;100395.53;5029412;28;20073;-73
2022/04/26 11:32:43;;;;;;;;;;;;;;;13.69;60.08;100401.06;5037620;28;20064;-73
2022/04/26 11:35:14;;;;;;;2.33;1.27;;;;;;;13.61;58.96;100404.63;5038487;28;19920;-73
2022/04/26 11:37:47;;;;;;;2.63;1.30;;;;;;;13.50;58.84;100411.13;5042432;28;20040;-73
2022/04/26 11:40:21;;;;;;;1.83;1.30;;;;;;;13.63;58.81;100410.56;5044058;28;20029;-72
2022/04/26 11:42:46;;;;;;;1.67;1.23;;;;;;;13.87;58.29;100406.09;5043828;28;20029;-73
2022/04/26 11:45:12;;;;;;;2.22;1.30;;;;;;;14.24;57.19;100415.97;5040552;28;20077;-73
2022/04/26 11:47:43;;;;;;;2.90;1.33;;;;;;;15.70;54.82;100409.28;5038485;28;20404;-72
2022/04/26 11:50:14;;;;;;;1.42;1.00;;;;;;;17.86;49.70;100421.09;5033745;28;20037;-73
2022/04/26 11:52:40;;;;;;;;;;;;;;;20.27;43.09;100423.00;5034845;28;20041;-73
2022/04/26 11:55:07;;;;;;;0.98;0.85;;;;;;;22.06;40.95;100420.22;5034594;28;19917;-73
2022/04/26 11:57:32;;;;;;;1.40;0.90;;;;;;;21.14;39.31;100432.97;5031400;28;20029;-74
2022/04/26 11:59:59;;;;;;;1.27;0.80;;;;;;;21.00;40.42;100433.13;5038826;28;20040;-73
2022/04/26 12:02:25;;;;;;;1.52;1.00;;;;;;;21.75;38.29;100437.44;5045966;28;20036;-74
2022/04/26 12:04:52;;;;;;;1.05;0.80;;;;;;;20.71;40.69;100440.03;5044606;28;20029;-74
2022/04/26 12:07:17;;;;;;;1.05;0.80;;;;;;;19.99;42.52;100442.19;5033062;28;20037;-73
2022/04/26 12:09:43;;;;;;;0.82;0.60;;;;;;;19.69;42.40;100440.09;5036809;28;20098;-73
2022/04/26 12:12:10;;;;;;;0.90;0.60;;;;;;;19.14;42.49;100439.66;5037859;28;20021;-74
2022/04/26 12:14:39;;;;;;;0.75;0.50;;;;;;;19.19;42.50;100436.34;5045916;28;20045;-73
2022/04/26 12:17:18;;;;;;;0.80;0.50;;;;;;;18.58;43.17;100451.63;5038859;28;20045;-74
2022/04/26 12:19:50;;;;;;;0.80;0.60;;;;;;;17.77;43.98;100438.31;5032097;28;20036;-73
2022/04/26 12:22:15;;;;;;;1.92;0.60;;;;;;;17.74;44.39;100439.53;5032550;28;20029;-74
2022/04/26 12:24:51;;;;;;;0.90;0.60;;;;;;;17.34;44.33;100444.72;5050273;28;20037;-73
2022/04/26 12:27:19;;;;;;;0.50;0.50;;;;;;;17.30;44.82;100447.97;5043288;28;20120;-73
2022/04/26 12:29:47;;;;;;;1.42;0.77;;;;;;;16.79;46.16;100445.63;5034694;28;20034;-73
2022/04/26 12:32:15;;;;;;;0.50;0.50;;;;;;;16.65;46.96;100450.00;5035081;28;20068;-73
2022/04/26 12:34:48;;;;;;;1.38;0.70;;;;;;;16.68;46.94;100447.75;5032231;28;20042;-73
2022/04/26 12:37:29;;;;;;;1.27;0.80;;;;;;;16.91;47.43;100450.22;5030117;28;20035;-73
2022/04/26 12:39:58;;;;;;;2.47;0.77;;;;;;;17.03;46.85;100449.69;5024941;28;20049;-74
2022/04/26 12:42:26;;;;;;;1.70;0.90;;;;;;;17.12;46.85;100443.97;5031585;28;20025;-73
2022/04/26 12:44:54;;;;;;;1.20;0.70;;;;;;;17.52;46.14;100446.00;5050172;28;20076;-73
2022/04/26 12:53:23;;;;;;;1.48;0.82;;;;;;;16.09;48.23;100451.56;5027745;28;20049;-74
2022/04/26 12:55:48;;;;;;;1.27;0.80;;;;;;;16.23;51.24;100454.34;5030079;28;20041;-74
2022/04/26 12:58:18;;;;;;;1.92;0.90;;;;;;;16.13;50.18;100447.47;5040313;28;20033;-74
2022/04/26 13:00:50;;;;;;;1.20;0.90;;;;;;;15.85;50.31;100452.75;5048976;28;20398;-73
2022/04/26 13:03:19;;;;;;;1.52;1.02;;;;;;;15.70;50.46;100455.41;5044846;28;20151;-73
2022/04/26 13:05:50;;;;;;;1.20;0.90;;;;;;;15.83;50.96;100460.09;5048934;28;20064;-74
2022/04/26 13:08:17;;;;;;;;;;;;;;;15.94;51.58;100450.75;5050140;28;20033;-73
2022/04/26 13:10:43;;;;;;;1.27;0.70;;;;;;;15.82;50.47;100458.44;5044732;28;19924;-73
2022/04/26 13:13:10;;;;;;;2.92;1.00;;;;;;;15.76;50.53;100466.38;5046373;28;20349;-74
2022/04/26 13:15:36;;;;;;;1.40;0.80;;;;;;;15.47;51.78;100462.72;5043955;28;20417;-73
2022/04/26 13:18:03;;;;;;;1.00;0.85;;;;;;;15.60;51.32;100464.72;5045444;28;20114;-73
2022/04/26 13:20:29;;;;;;;1.20;0.80;;;;;;;15.99;50.87;100459.03;5046273;28;20497;-73
2022/04/26 13:22:54;;;;;;;1.63;0.80;;;;;;;16.09;50.25;100467.56;5049162;28;20048;-73
2022/04/26 13:25:20;;;;;;;1.10;0.80;;;;;;;16.15;50.56;100473.97;5045570;28;20940;-73
2022/04/26 13:27:48;;;;;;;1.47;0.80;;;;;;;15.98;50.36;100475.22;5046790;28;20496;-73
2022/04/26 13:30:15;;;;;;;0.82;0.60;;;;;;;15.67;51.08;100477.09;5044183;28;20382;-73
2022/04/26 13:32:41;;;;;;;1.50;0.80;;;;;;;15.51;51.62;100478.13;5048848;28;20501;-73
2022/04/26 13:35:06;;;;;;;;;;;;;;;15.36;52.89;100477.31;5044258;28;20037;-73
2022/04/26 13:37:32;;;;;;;0.73;0.60;;;;;;;14.88;52.56;100481.31;5048201;28;19923;-73
2022/04/26 13:40:01;;;;;;;1.45;0.68;;;;;;;14.67;52.97;100477.50;5045640;28;20056;-73
2022/04/26 13:42:27;;;;;;;;;;;;;;;14.49;53.07;100483.13;5043908;28;20053;-73
2022/04/26 13:44:54;;;;;;;2.00;0.90;;;;;;;14.14;54.18;100485.34;5050708;28;20015;-72
2022/04/26 13:47:20;;;;;;;2.38;0.80;;;;;;;14.18;54.04;100483.16;5051225;28;20025;-72
2022/04/26 13:49:45;;;;;;;1.15;0.80;;;;;;;14.14;55.57;100487.19;5045175;28;20033;-72
2022/04/26 13:52:11;;;;;;;1.95;1.30;;;;;;;13.89;56.49;100492.63;5046389;28;20047;-73
2022/04/26 13:54:37;;;;;;;2.08;1.60;;;;;;;13.71;57.39;100486.75;5043702;28;20037;-72
2022/04/26 13:57:04;;;;;;;;;;;;;;;13.79;59.10;100484.06;5053875;28;20029;-73
2022/04/26 13:59:29;;;;;;;1.65;1.27;;;;;;;13.78;57.84;100488.56;5055822;28;19966;-73
2022/04/26 14:01:55;;;;;;;1.33;0.98;;;;;;;13.88;57.58;100493.66;5049004;28;20033;-72
2022/04/26 14:04:21;;;;;;;2.60;1.20;;;;;;;14.20;57.42;100497.94;5057368;28;20041;-73
2022/04/26 14:06:47;;;;;;;1.90;1.50;;;;;;;14.14;57.61;100493.34;5054672;28;20043;-72
2022/04/26 14:09:14;;;;;;;2.17;1.42;;;;;;;13.85;58.25;100495.81;5054126;28;20029;-73
2022/04/26 14:11:40;;;;;;;2.28;1.60;;;;;;;13.47;59.58;100507.13;5054473;28;20043;-72
2022/04/26 14:22:18;;;;;;;1.90;1.50;;;;;;;13.11;61.06;100504.03;5052298;28;20098;-72
2022/04/26 14:24:43;;;;;;;2.50;1.70;;;;;;;13.09;61.52;100506.03;5052723;28;20037;-73
2022/04/26 14:27:09;;;;;;;2.70;1.85;;;;;;;13.15;61.28;100502.66;5050666;28;20063;-73
2022/04/26 14:29:35;;;;;;;3.05;1.90;;;;;;;13.03;61.23;100501.38;5041905;28;20056;-73
2022/04/26 14:32:01;;;;;;;2.17;1.60;;;;;;;13.01;61.74;100511.31;5050295;28;20033;-72
2022/04/26 14:34:26;;;;;;;2.00;1.50;;;;;;;13.33;60.96;100503.31;5047930;28;20040;-73
2022/04/26 14:36:52;;;;;;;2.65;1.80;;;;;;;13.46;60.51;100507.28;5050995;28;20033;-73
2022/04/26 14:39:17;;;;;;;2.10;1.67;;;;;;;13.55;60.41;100506.25;5050352;28;20475;-73
2022/04/26 14:41:43;;;;;;;2.80;1.80;;;;;;;13.67;59.68;100510.19;5050907;28;20037;-72
2022/04/26 14:44:09;;;;;;;2.15;1.70;;;;;;;13.69;60.48;100507.38;5050391;28;20033;-72
2022/04/26 14:46:35;;;;;;;2.42;1.70;;;;;;;13.76;60.07;100509.16;5043522;28;20034;-72
2022/04/26 14:49:00;;;;;;;2.85;1.55;;;;;;;14.26;58.86;100508.91;5050765;28;20489;-73
2022/04/26 14:51:26;;;;;;;2.65;1.75;;;;;;;14.40;58.30;100502.81;5042901;28;20029;-73
2022/04/26 14:53:51;;;;;;;2.38;1.50;;;;;;;14.61;57.31;100507.47;5050297;28;20036;-73
2022/04/26 14:56:17;;;;;;;1.70;1.40;;;;;;;14.62;58.00;100507.31;5050304;28;20025;-73
2022/04/26 14:58:42;;;;;;;1.80;1.45;;;;;;;14.82;57.85;100507.63;5049546;28;20131;-73
2022/04/26 15:01:07;;;;;;;2.28;1.50;;;;;;;15.07;57.10;100502.09;5037572;28;20028;-73
2022/04/26 15:03:33;;;;;;;2.08;1.50;;;;;;;15.22;56.27;100507.44;5048039;28;20029;-73
2022/04/26 15:05:59;;;;;;;2.03;1.50;;;;;;;15.29;55.98;100511.84;5045036;28;20043;-73
2022/04/26 15:11:08;;;;;;;2.13;1.50;;;;;;;15.40;55.30;100513.25;5050848;28;20095;-73
2022/04/26 15:19:02;;;;;;;;;;;;;;;14.97;55.94;100505.03;5036941;28;19927;-73
2022/04/26 15:21:27;;;;;;;;;;;;;;;14.68;55.72;100510.28;5042876;28;19925;-73
2022/04/26 15:23:53;;;;;;;;;;;;;;;14.52;56.48;100512.03;5047433;28;19921;-73
2022/04/26 15:26:19;;;;;;;1.70;1.20;;;;;;;14.45;56.18;100511.09;5043342;28;20376;-72
2022/04/26 15:28:44;;;;;;;1.50;1.20;;;;;;;14.43;56.36;100508.59;5047811;28;20037;-72
2022/04/26 15:31:10;;;;;;;2.22;1.58;;;;;;;14.24;56.60;100520.53;5041146;28;20036;-72
2022/04/26 15:33:35;;;;;;;1.90;1.25;;;;;;;14.17;56.61;100511.59;5045105;28;20190;-72
2022/04/26 15:36:01;;;;;;;1.85;1.45;;;;;;;14.08;56.36;100517.97;5045294;28;20616;-73
2022/04/26 15:38:29;;;;;;;1.85;1.15;;;;;;;13.95;56.97;100515.06;5042365;28;20095;-72